sensor_id;sensor_type;location;lat;lon;timestamp;P1;durP1;ratioP1;P2;durP2;ratioP2
35326;SDS011;21436;52.348;20.928;2023-02-11T00:01:08;73.53;;;27.83;;
35326;SDS011;21436;52.348;20.928;2023-02-11T00:03:37;64.30;;;26.38;;
35326;SDS011;21436;52.348;20.928;2023-02-11T00:06:05;66.25;;;25.15;;
35326;SDS011;21436;52.348;20.928;2023-02-11T00:08:35;67.03;;;25.08;;
35326;SDS011;21436;52.348;20.928;2023-02-11T00:11:03;62.13;;;25.20;;
35326;SDS011;21436;52.348;20.928;2023-02-11T00:13:31;63.10;;;25.10;;
35326;SDS011;21436;52.348;20.928;2023-02-11T00:15:58;66.40;;;23.40;;
35326;SDS011;21436;52.348;20.928;2023-02-11T00:18:26;66.85;;;25.30;;
35326;SDS011;21436;52.348;20.928;2023-02-11T00:20:54;64.75;;;23.17;;
35326;SDS011;21436;52.348;20.928;2023-02-11T00:23:21;59.17;;;23.88;;
35326;SDS011;21436;52.348;20.928;2023-02-11T00:25:48;54.55;;;24.83;;
35326;SDS011;21436;52.348;20.928;2023-02-11T00:28:16;56.15;;;22.13;;
35326;SDS011;21436;52.348;20.928;2023-02-11T00:30:43;61.95;;;23.88;;
35326;SDS011;21436;52.348;20.928;2023-02-11T00:33:11;60.28;;;22.63;;
35326;SDS011;21436;52.348;20.928;2023-02-11T00:35:38;55.65;;;22.83;;
35326;SDS011;21436;52.348;20.928;2023-02-11T00:38:07;59.25;;;21.95;;
35326;SDS011;21436;52.348;20.928;2023-02-11T00:40:34;60.42;;;22.45;;
35326;SDS011;21436;52.348;20.928;2023-02-11T00:43:02;55.92;;;21.92;;
35326;SDS011;21436;52.348;20.928;2023-02-11T00:45:30;52.25;;;20.75;;
35326;SDS011;21436;52.348;20.928;2023-02-11T00:47:57;53.95;;;20.17;;
35326;SDS011;21436;52.348;20.928;2023-02-11T00:50:27;52.28;;;19.88;;
35326;SDS011;21436;52.348;20.928;2023-02-11T00:52:55;49.78;;;19.35;;
35326;SDS011;21436;52.348;20.928;2023-02-11T00:55:22;56.80;;;21.17;;
35326;SDS011;21436;52.348;20.928;2023-02-11T00:57:49;53.08;;;20.20;;
35326;SDS011;21436;52.348;20.928;2023-02-11T01:00:17;52.40;;;20.15;;
35326;SDS011;21436;52.348;20.928;2023-02-11T01:02:45;49.50;;;18.35;;
35326;SDS011;21436;52.348;20.928;2023-02-11T01:05:12;53.20;;;19.98;;
35326;SDS011;21436;52.348;20.928;2023-02-11T01:07:40;48.25;;;17.73;;
35326;SDS011;21436;52.348;20.928;2023-02-11T01:10:07;48.17;;;19.70;;
35326;SDS011;21436;52.348;20.928;2023-02-11T01:12:35;45.55;;;19.40;;
35326;SDS011;21436;52.348;20.928;2023-02-11T01:15:03;46.85;;;18.58;;
35326;SDS011;21436;52.348;20.928;2023-02-11T01:17:32;51.88;;;18.90;;
35326;SDS011;21436;52.348;20.928;2023-02-11T01:20:04;48.50;;;18.85;;
35326;SDS011;21436;52.348;20.928;2023-02-11T01:22:32;48.75;;;18.63;;
35326;SDS011;21436;52.348;20.928;2023-02-11T01:25:03;47.97;;;18.85;;
35326;SDS011;21436;52.348;20.928;2023-02-11T01:27:31;45.53;;;18.33;;
35326;SDS011;21436;52.348;20.928;2023-02-11T01:29:58;52.85;;;18.77;;
35326;SDS011;21436;52.348;20.928;2023-02-11T01:32:26;47.92;;;18.55;;
35326;SDS011;21436;52.348;20.928;2023-02-11T01:34:53;41.85;;;17.42;;
35326;SDS011;21436;52.348;20.928;2023-02-11T01:37:20;42.90;;;18.02;;
35326;SDS011;21436;52.348;20.928;2023-02-11T01:39:48;38.83;;;17.20;;
35326;SDS011;21436;52.348;20.928;2023-02-11T01:42:17;50.63;;;18.90;;
35326;SDS011;21436;52.348;20.928;2023-02-11T01:44:50;31.63;;;13.50;;
35326;SDS011;21436;52.348;20.928;2023-02-11T01:47:19;43.43;;;15.80;;
35326;SDS011;21436;52.348;20.928;2023-02-11T01:49:48;43.20;;;15.75;;
35326;SDS011;21436;52.348;20.928;2023-02-11T01:54:59;43.00;;;17.17;;
35326;SDS011;21436;52.348;20.928;2023-02-11T01:57:48;51.38;;;17.73;;
35326;SDS011;21436;52.348;20.928;2023-02-11T02:05:28;39.70;;;17.15;;
35326;SDS011;21436;52.348;20.928;2023-02-11T02:10:37;51.38;;;17.48;;
35326;SDS011;21436;52.348;20.928;2023-02-11T02:13:07;44.08;;;16.55;;
35326;SDS011;21436;52.348;20.928;2023-02-11T02:15:35;46.90;;;16.17;;
35326;SDS011;21436;52.348;20.928;2023-02-11T02:18:19;41.47;;;17.25;;
35326;SDS011;21436;52.348;20.928;2023-02-11T02:40:40;48.55;;;18.40;;
35326;SDS011;21436;52.348;20.928;2023-02-11T02:43:13;45.78;;;16.95;;
35326;SDS011;21436;52.348;20.928;2023-02-11T02:45:41;52.38;;;19.15;;
35326;SDS011;21436;52.348;20.928;2023-02-11T02:48:25;48.42;;;18.85;;
35326;SDS011;21436;52.348;20.928;2023-02-11T03:11:23;45.13;;;15.60;;
35326;SDS011;21436;52.348;20.928;2023-02-11T03:13:52;46.30;;;18.80;;
35326;SDS011;21436;52.348;20.928;2023-02-11T03:16:22;44.90;;;16.55;;
35326;SDS011;21436;52.348;20.928;2023-02-11T03:18:58;47.37;;;17.60;;
35326;SDS011;21436;52.348;20.928;2023-02-11T03:21:29;54.28;;;19.25;;
35326;SDS011;21436;52.348;20.928;2023-02-11T03:23:59;46.30;;;18.98;;
35326;SDS011;21436;52.348;20.928;2023-02-11T03:26:31;44.30;;;18.63;;
35326;SDS011;21436;52.348;20.928;2023-02-11T03:35:02;43.40;;;17.40;;
35326;SDS011;21436;52.348;20.928;2023-02-11T03:37:34;38.13;;;16.52;;
35326;SDS011;21436;52.348;20.928;2023-02-11T03:40:07;43.17;;;16.65;;
35326;SDS011;21436;52.348;20.928;2023-02-11T03:42:39;43.13;;;17.13;;
35326;SDS011;21436;52.348;20.928;2023-02-11T03:45:11;50.17;;;17.67;;
35326;SDS011;21436;52.348;20.928;2023-02-11T03:47:43;35.25;;;15.07;;
35326;SDS011;21436;52.348;20.928;2023-02-11T03:50:13;46.60;;;17.77;;
35326;SDS011;21436;52.348;20.928;2023-02-11T03:52:41;44.40;;;16.05;;
35326;SDS011;21436;52.348;20.928;2023-02-11T03:55:10;40.03;;;17.02;;
35326;SDS011;21436;52.348;20.928;2023-02-11T03:57:39;43.17;;;17.65;;
35326;SDS011;21436;52.348;20.928;2023-02-11T04:00:07;41.17;;;15.52;;
35326;SDS011;21436;52.348;20.928;2023-02-11T04:02:37;41.13;;;14.70;;
35326;SDS011;21436;52.348;20.928;2023-02-11T04:05:07;41.95;;;15.98;;
35326;SDS011;21436;52.348;20.928;2023-02-11T04:07:39;38.88;;;16.75;;
35326;SDS011;21436;52.348;20.928;2023-02-11T04:10:07;43.75;;;17.92;;
35326;SDS011;21436;52.348;20.928;2023-02-11T04:12:34;39.63;;;16.20;;
35326;SDS011;21436;52.348;20.928;2023-02-11T04:15:02;39.03;;;16.00;;
35326;SDS011;21436;52.348;20.928;2023-02-11T04:17:30;42.05;;;17.27;;
35326;SDS011;21436;52.348;20.928;2023-02-11T04:19:58;47.22;;;17.90;;
35326;SDS011;21436;52.348;20.928;2023-02-11T04:22:25;44.42;;;16.95;;
35326;SDS011;21436;52.348;20.928;2023-02-11T04:24:53;39.40;;;16.52;;
35326;SDS011;21436;52.348;20.928;2023-02-11T04:27:20;47.72;;;19.02;;
35326;SDS011;21436;52.348;20.928;2023-02-11T04:29:47;47.47;;;18.27;;
35326;SDS011;21436;52.348;20.928;2023-02-11T04:32:15;48.28;;;17.98;;
35326;SDS011;21436;52.348;20.928;2023-02-11T04:34:42;49.65;;;19.35;;
35326;SDS011;21436;52.348;20.928;2023-02-11T04:37:10;48.17;;;19.77;;
35326;SDS011;21436;52.348;20.928;2023-02-11T04:39:37;47.05;;;19.10;;
35326;SDS011;21436;52.348;20.928;2023-02-11T04:42:05;50.83;;;19.38;;
35326;SDS011;21436;52.348;20.928;2023-02-11T04:44:33;47.97;;;17.10;;
35326;SDS011;21436;52.348;20.928;2023-02-11T04:47:00;52.42;;;18.98;;
35326;SDS011;21436;52.348;20.928;2023-02-11T04:49:28;47.90;;;19.60;;
35326;SDS011;21436;52.348;20.928;2023-02-11T04:51:55;41.22;;;18.40;;
35326;SDS011;21436;52.348;20.928;2023-02-11T04:54:23;44.20;;;15.48;;
35326;SDS011;21436;52.348;20.928;2023-02-11T04:56:50;46.42;;;20.73;;
35326;SDS011;21436;52.348;20.928;2023-02-11T04:59:17;49.15;;;18.98;;
35326;SDS011;21436;52.348;20.928;2023-02-11T05:01:45;49.90;;;19.63;;
35326;SDS011;21436;52.348;20.928;2023-02-11T05:04:13;49.00;;;18.77;;
35326;SDS011;21436;52.348;20.928;2023-02-11T05:06:40;46.70;;;19.25;;
35326;SDS011;21436;52.348;20.928;2023-02-11T05:09:09;51.40;;;20.45;;
35326;SDS011;21436;52.348;20.928;2023-02-11T05:11:37;48.70;;;21.45;;
35326;SDS011;21436;52.348;20.928;2023-02-11T05:14:05;46.70;;;20.50;;
35326;SDS011;21436;52.348;20.928;2023-02-11T05:16:33;50.47;;;21.25;;
35326;SDS011;21436;52.348;20.928;2023-02-11T05:19:01;45.65;;;19.15;;
35326;SDS011;21436;52.348;20.928;2023-02-11T05:21:28;51.28;;;20.20;;
35326;SDS011;21436;52.348;20.928;2023-02-11T05:23:56;48.08;;;20.27;;
35326;SDS011;21436;52.348;20.928;2023-02-11T05:26:23;53.95;;;21.67;;
35326;SDS011;21436;52.348;20.928;2023-02-11T05:28:51;48.10;;;20.63;;
35326;SDS011;21436;52.348;20.928;2023-02-11T05:31:19;52.78;;;20.80;;
35326;SDS011;21436;52.348;20.928;2023-02-11T05:33:46;49.13;;;20.15;;
35326;SDS011;21436;52.348;20.928;2023-02-11T05:36:13;53.35;;;21.70;;
35326;SDS011;21436;52.348;20.928;2023-02-11T05:38:42;47.72;;;22.33;;
35326;SDS011;21436;52.348;20.928;2023-02-11T05:41:10;48.80;;;20.50;;
35326;SDS011;21436;52.348;20.928;2023-02-11T05:43:38;52.70;;;20.75;;
35326;SDS011;21436;52.348;20.928;2023-02-11T05:46:05;52.90;;;21.63;;
35326;SDS011;21436;52.348;20.928;2023-02-11T05:48:33;54.38;;;23.90;;
35326;SDS011;21436;52.348;20.928;2023-02-11T05:51:00;52.50;;;20.67;;
35326;SDS011;21436;52.348;20.928;2023-02-11T05:53:29;48.00;;;21.48;;
35326;SDS011;21436;52.348;20.928;2023-02-11T05:55:56;47.72;;;19.85;;
35326;SDS011;21436;52.348;20.928;2023-02-11T05:58:24;51.60;;;22.23;;
35326;SDS011;21436;52.348;20.928;2023-02-11T06:00:51;54.45;;;23.40;;
35326;SDS011;21436;52.348;20.928;2023-02-11T06:03:19;56.53;;;23.90;;
35326;SDS011;21436;52.348;20.928;2023-02-11T06:05:46;49.97;;;21.63;;
35326;SDS011;21436;52.348;20.928;2023-02-11T06:08:14;47.78;;;19.98;;
35326;SDS011;21436;52.348;20.928;2023-02-11T06:10:43;54.38;;;20.73;;
35326;SDS011;21436;52.348;20.928;2023-02-11T06:13:11;48.47;;;21.58;;
35326;SDS011;21436;52.348;20.928;2023-02-11T06:15:39;51.03;;;21.80;;
35326;SDS011;21436;52.348;20.928;2023-02-11T06:18:06;49.33;;;22.02;;
35326;SDS011;21436;52.348;20.928;2023-02-11T06:20:34;51.53;;;21.92;;
35326;SDS011;21436;52.348;20.928;2023-02-11T06:23:02;53.15;;;22.45;;
35326;SDS011;21436;52.348;20.928;2023-02-11T06:25:29;58.25;;;23.77;;
35326;SDS011;21436;52.348;20.928;2023-02-11T06:27:56;52.60;;;20.15;;
35326;SDS011;21436;52.348;20.928;2023-02-11T06:30:24;49.50;;;19.73;;
35326;SDS011;21436;52.348;20.928;2023-02-11T06:32:51;58.90;;;24.65;;
35326;SDS011;21436;52.348;20.928;2023-02-11T06:35:19;60.05;;;23.58;;
35326;SDS011;21436;52.348;20.928;2023-02-11T06:37:46;61.92;;;25.15;;
35326;SDS011;21436;52.348;20.928;2023-02-11T06:40:15;55.15;;;24.13;;
35326;SDS011;21436;52.348;20.928;2023-02-11T06:42:43;52.75;;;23.77;;
35326;SDS011;21436;52.348;20.928;2023-02-11T06:45:10;59.42;;;24.63;;
35326;SDS011;21436;52.348;20.928;2023-02-11T06:47:39;60.03;;;24.40;;
35326;SDS011;21436;52.348;20.928;2023-02-11T06:50:10;60.03;;;25.23;;
35326;SDS011;21436;52.348;20.928;2023-02-11T06:52:39;61.55;;;24.83;;
35326;SDS011;21436;52.348;20.928;2023-02-11T06:55:07;60.63;;;24.13;;
35326;SDS011;21436;52.348;20.928;2023-02-11T06:57:35;59.35;;;24.85;;
35326;SDS011;21436;52.348;20.928;2023-02-11T07:00:02;62.15;;;26.65;;
35326;SDS011;21436;52.348;20.928;2023-02-11T07:02:31;58.35;;;26.10;;
35326;SDS011;21436;52.348;20.928;2023-02-11T07:04:59;63.60;;;26.63;;
35326;SDS011;21436;52.348;20.928;2023-02-11T07:07:26;69.93;;;27.17;;
35326;SDS011;21436;52.348;20.928;2023-02-11T07:09:54;61.95;;;27.10;;
35326;SDS011;21436;52.348;20.928;2023-02-11T07:12:22;63.58;;;28.35;;
35326;SDS011;21436;52.348;20.928;2023-02-11T07:14:49;71.35;;;26.65;;
35326;SDS011;21436;52.348;20.928;2023-02-11T07:17:17;63.58;;;27.08;;
35326;SDS011;21436;52.348;20.928;2023-02-11T07:19:44;66.57;;;26.35;;
35326;SDS011;21436;52.348;20.928;2023-02-11T07:22:12;68.97;;;28.95;;
35326;SDS011;21436;52.348;20.928;2023-02-11T07:24:39;68.97;;;28.50;;
35326;SDS011;21436;52.348;20.928;2023-02-11T07:27:07;65.13;;;28.45;;
35326;SDS011;21436;52.348;20.928;2023-02-11T07:29:35;73.68;;;28.10;;
35326;SDS011;21436;52.348;20.928;2023-02-11T07:32:02;71.00;;;30.48;;
35326;SDS011;21436;52.348;20.928;2023-02-11T07:34:30;77.15;;;29.05;;
35326;SDS011;21436;52.348;20.928;2023-02-11T07:36:58;69.95;;;29.85;;
35326;SDS011;21436;52.348;20.928;2023-02-11T07:39:25;67.78;;;29.92;;
35326;SDS011;21436;52.348;20.928;2023-02-11T07:41:53;84.70;;;30.92;;
35326;SDS011;21436;52.348;20.928;2023-02-11T07:44:21;77.07;;;31.67;;
35326;SDS011;21436;52.348;20.928;2023-02-11T07:46:49;78.93;;;29.08;;
35326;SDS011;21436;52.348;20.928;2023-02-11T07:49:16;76.32;;;31.48;;
35326;SDS011;21436;52.348;20.928;2023-02-11T07:51:44;77.25;;;30.83;;
35326;SDS011;21436;52.348;20.928;2023-02-11T07:54:13;80.95;;;30.88;;
35326;SDS011;21436;52.348;20.928;2023-02-11T07:56:40;78.68;;;29.92;;
35326;SDS011;21436;52.348;20.928;2023-02-11T07:59:08;73.50;;;29.10;;
35326;SDS011;21436;52.348;20.928;2023-02-11T08:01:37;74.10;;;29.45;;
35326;SDS011;21436;52.348;20.928;2023-02-11T08:04:04;76.80;;;30.13;;
35326;SDS011;21436;52.348;20.928;2023-02-11T08:06:33;79.13;;;31.33;;
35326;SDS011;21436;52.348;20.928;2023-02-11T08:09:05;80.28;;;32.58;;
35326;SDS011;21436;52.348;20.928;2023-02-11T08:14:01;85.72;;;31.02;;
35326;SDS011;21436;52.348;20.928;2023-02-11T08:16:30;84.95;;;33.28;;
35326;SDS011;21436;52.348;20.928;2023-02-11T08:19:00;79.95;;;33.08;;
35326;SDS011;21436;52.348;20.928;2023-02-11T08:21:30;72.13;;;29.90;;
35326;SDS011;21436;52.348;20.928;2023-02-11T08:23:57;75.35;;;29.98;;
35326;SDS011;21436;52.348;20.928;2023-02-11T08:26:26;67.88;;;29.20;;
35326;SDS011;21436;52.348;20.928;2023-02-11T08:28:55;67.18;;;26.33;;
35326;SDS011;21436;52.348;20.928;2023-02-11T08:31:25;85.25;;;33.38;;
35326;SDS011;21436;52.348;20.928;2023-02-11T08:33:54;65.75;;;26.15;;
35326;SDS011;21436;52.348;20.928;2023-02-11T08:36:25;84.05;;;33.13;;
35326;SDS011;21436;52.348;20.928;2023-02-11T08:38:56;79.20;;;32.33;;
35326;SDS011;21436;52.348;20.928;2023-02-11T08:41:44;79.63;;;33.47;;
35326;SDS011;21436;52.348;20.928;2023-02-11T08:44:12;77.55;;;31.58;;
35326;SDS011;21436;52.348;20.928;2023-02-11T08:46:40;78.40;;;31.50;;
35326;SDS011;21436;52.348;20.928;2023-02-11T08:49:07;81.43;;;31.25;;
35326;SDS011;21436;52.348;20.928;2023-02-11T08:51:35;78.93;;;33.30;;
35326;SDS011;21436;52.348;20.928;2023-02-11T08:54:02;73.55;;;29.63;;
35326;SDS011;21436;52.348;20.928;2023-02-11T08:56:30;72.85;;;31.95;;
35326;SDS011;21436;52.348;20.928;2023-02-11T08:58:59;73.97;;;32.38;;
35326;SDS011;21436;52.348;20.928;2023-02-11T09:01:27;78.00;;;31.58;;
35326;SDS011;21436;52.348;20.928;2023-02-11T09:03:56;76.85;;;31.77;;
35326;SDS011;21436;52.348;20.928;2023-02-11T09:06:25;79.35;;;32.15;;
35326;SDS011;21436;52.348;20.928;2023-02-11T09:08:54;68.30;;;29.45;;
35326;SDS011;21436;52.348;20.928;2023-02-11T09:11:34;71.68;;;32.00;;
35326;SDS011;21436;52.348;20.928;2023-02-11T09:14:02;69.90;;;26.90;;
35326;SDS011;21436;52.348;20.928;2023-02-11T09:16:32;74.93;;;29.13;;
35326;SDS011;21436;52.348;20.928;2023-02-11T09:19:02;79.18;;;31.98;;
35326;SDS011;21436;52.348;20.928;2023-02-11T09:21:32;72.80;;;29.52;;
35326;SDS011;21436;52.348;20.928;2023-02-11T09:24:00;77.65;;;32.45;;
35326;SDS011;21436;52.348;20.928;2023-02-11T09:26:29;91.72;;;36.30;;
35326;SDS011;21436;52.348;20.928;2023-02-11T09:28:58;80.68;;;31.48;;
35326;SDS011;21436;52.348;20.928;2023-02-11T09:31:27;89.50;;;34.13;;
35326;SDS011;21436;52.348;20.928;2023-02-11T09:33:57;89.80;;;35.70;;
35326;SDS011;21436;52.348;20.928;2023-02-11T09:36:28;96.47;;;35.60;;
35326;SDS011;21436;52.348;20.928;2023-02-11T09:39:00;55.20;;;22.25;;
35326;SDS011;21436;52.348;20.928;2023-02-11T09:41:34;82.88;;;34.08;;
35326;SDS011;21436;52.348;20.928;2023-02-11T09:44:05;86.85;;;34.42;;
35326;SDS011;21436;52.348;20.928;2023-02-11T09:46:38;86.45;;;33.50;;
35326;SDS011;21436;52.348;20.928;2023-02-11T09:49:10;86.78;;;33.22;;
35326;SDS011;21436;52.348;20.928;2023-02-11T09:51:48;86.13;;;33.30;;
35326;SDS011;21436;52.348;20.928;2023-02-11T09:54:26;89.88;;;33.78;;
35326;SDS011;21436;52.348;20.928;2023-02-11T09:56:56;85.88;;;34.17;;
35326;SDS011;21436;52.348;20.928;2023-02-11T09:59:23;86.55;;;34.47;;
35326;SDS011;21436;52.348;20.928;2023-02-11T10:23:53;106.65;;;36.45;;
35326;SDS011;21436;52.348;20.928;2023-02-11T10:26:22;108.95;;;36.88;;
35326;SDS011;21436;52.348;20.928;2023-02-11T10:28:51;93.20;;;35.22;;
35326;SDS011;21436;52.348;20.928;2023-02-11T10:31:22;106.53;;;37.33;;
35326;SDS011;21436;52.348;20.928;2023-02-11T10:36:34;93.07;;;33.67;;
35326;SDS011;21436;52.348;20.928;2023-02-11T10:47:19;100.30;;;36.05;;
35326;SDS011;21436;52.348;20.928;2023-02-11T10:49:49;120.40;;;39.53;;
35326;SDS011;21436;52.348;20.928;2023-02-11T10:54:54;120.72;;;43.72;;
35326;SDS011;21436;52.348;20.928;2023-02-11T10:57:32;107.15;;;41.05;;
35326;SDS011;21436;52.348;20.928;2023-02-11T11:00:04;101.57;;;37.75;;
35326;SDS011;21436;52.348;20.928;2023-02-11T11:02:35;119.00;;;41.92;;
35326;SDS011;21436;52.348;20.928;2023-02-11T11:05:06;110.78;;;38.58;;
35326;SDS011;21436;52.348;20.928;2023-02-11T11:07:50;129.35;;;43.65;;
35326;SDS011;21436;52.348;20.928;2023-02-11T11:10:25;101.00;;;37.08;;
35326;SDS011;21436;52.348;20.928;2023-02-11T11:13:26;122.35;;;42.67;;
35326;SDS011;21436;52.348;20.928;2023-02-11T11:16:18;118.78;;;40.85;;
35326;SDS011;21436;52.348;20.928;2023-02-11T11:21:43;124.32;;;44.03;;
35326;SDS011;21436;52.348;20.928;2023-02-11T11:24:31;129.15;;;41.38;;
35326;SDS011;21436;52.348;20.928;2023-02-11T11:27:04;120.47;;;41.65;;
35326;SDS011;21436;52.348;20.928;2023-02-11T11:29:38;128.65;;;45.60;;
35326;SDS011;21436;52.348;20.928;2023-02-11T11:32:12;128.60;;;42.92;;
35326;SDS011;21436;52.348;20.928;2023-02-11T11:34:53;121.50;;;45.22;;
35326;SDS011;21436;52.348;20.928;2023-02-11T11:37:24;122.30;;;41.30;;
35326;SDS011;21436;52.348;20.928;2023-02-11T11:39:55;135.95;;;45.97;;
35326;SDS011;21436;52.348;20.928;2023-02-11T11:42:32;127.68;;;42.85;;
35326;SDS011;21436;52.348;20.928;2023-02-11T11:47:59;120.63;;;45.70;;
35326;SDS011;21436;52.348;20.928;2023-02-11T11:53:05;125.90;;;44.70;;
35326;SDS011;21436;52.348;20.928;2023-02-11T11:55:38;131.13;;;45.08;;
35326;SDS011;21436;52.348;20.928;2023-02-11T11:58:21;83.30;;;28.90;;
35326;SDS011;21436;52.348;20.928;2023-02-11T12:11:38;119.15;;;44.00;;
35326;SDS011;21436;52.348;20.928;2023-02-11T12:20:15;137.63;;;48.67;;
35326;SDS011;21436;52.348;20.928;2023-02-11T12:34:47;122.28;;;44.92;;
35326;SDS011;21436;52.348;20.928;2023-02-11T12:54:27;113.47;;;42.60;;
35326;SDS011;21436;52.348;20.928;2023-02-11T12:57:01;127.32;;;45.78;;
35326;SDS011;21436;52.348;20.928;2023-02-11T12:59:39;128.30;;;45.38;;
35326;SDS011;21436;52.348;20.928;2023-02-11T13:05:22;114.20;;;39.72;;
35326;SDS011;21436;52.348;20.928;2023-02-11T13:08:02;113.78;;;41.13;;
35326;SDS011;21436;52.348;20.928;2023-02-11T13:10:36;115.70;;;45.20;;
35326;SDS011;21436;52.348;20.928;2023-02-11T13:13:18;122.70;;;44.45;;
35326;SDS011;21436;52.348;20.928;2023-02-11T13:16:02;106.55;;;41.35;;
35326;SDS011;21436;52.348;20.928;2023-02-11T13:18:39;108.63;;;39.97;;
35326;SDS011;21436;52.348;20.928;2023-02-11T13:21:23;111.03;;;42.97;;
35326;SDS011;21436;52.348;20.928;2023-02-11T13:23:58;119.00;;;44.22;;
35326;SDS011;21436;52.348;20.928;2023-02-11T13:26:44;104.45;;;40.08;;
35326;SDS011;21436;52.348;20.928;2023-02-11T13:32:05;113.72;;;43.75;;
35326;SDS011;21436;52.348;20.928;2023-02-11T13:37:23;117.75;;;42.30;;
35326;SDS011;21436;52.348;20.928;2023-02-11T13:40:02;98.13;;;40.30;;
35326;SDS011;21436;52.348;20.928;2023-02-11T13:42:43;105.20;;;40.25;;
35326;SDS011;21436;52.348;20.928;2023-02-11T13:45:17;119.22;;;42.03;;
35326;SDS011;21436;52.348;20.928;2023-02-11T13:47:56;112.40;;;42.47;;
35326;SDS011;21436;52.348;20.928;2023-02-11T13:50:24;116.00;;;42.42;;
35326;SDS011;21436;52.348;20.928;2023-02-11T13:53:00;109.10;;;41.20;;
35326;SDS011;21436;52.348;20.928;2023-02-11T13:55:29;113.57;;;43.42;;
35326;SDS011;21436;52.348;20.928;2023-02-11T14:19:36;110.18;;;42.08;;
35326;SDS011;21436;52.348;20.928;2023-02-11T14:24:56;111.75;;;40.70;;
35326;SDS011;21436;52.348;20.928;2023-02-11T14:32:51;108.55;;;39.63;;
35326;SDS011;21436;52.348;20.928;2023-02-11T14:41:25;112.90;;;39.45;;
35326;SDS011;21436;52.348;20.928;2023-02-11T14:43:59;108.87;;;40.13;;
35326;SDS011;21436;52.348;20.928;2023-02-11T14:46:30;109.65;;;39.85;;
35326;SDS011;21436;52.348;20.928;2023-02-11T14:49:01;97.70;;;38.70;;
35326;SDS011;21436;52.348;20.928;2023-02-11T14:51:30;100.63;;;39.03;;
35326;SDS011;21436;52.348;20.928;2023-02-11T14:54:04;101.03;;;36.90;;
35326;SDS011;21436;52.348;20.928;2023-02-11T14:56:44;99.03;;;39.28;;
35326;SDS011;21436;52.348;20.928;2023-02-11T14:59:20;90.10;;;36.28;;
35326;SDS011;21436;52.348;20.928;2023-02-11T15:01:49;105.63;;;38.60;;
35326;SDS011;21436;52.348;20.928;2023-02-11T15:04:25;108.78;;;38.22;;
35326;SDS011;21436;52.348;20.928;2023-02-11T15:06:53;92.30;;;37.53;;
35326;SDS011;21436;52.348;20.928;2023-02-11T15:09:22;102.85;;;38.33;;
35326;SDS011;21436;52.348;20.928;2023-02-11T15:14:27;96.47;;;36.20;;
35326;SDS011;21436;52.348;20.928;2023-02-11T15:17:03;98.05;;;38.65;;
35326;SDS011;21436;52.348;20.928;2023-02-11T15:19:37;89.65;;;36.05;;
35326;SDS011;21436;52.348;20.928;2023-02-11T15:22:14;96.65;;;38.08;;
35326;SDS011;21436;52.348;20.928;2023-02-11T15:24:44;90.20;;;36.17;;
35326;SDS011;21436;52.348;20.928;2023-02-11T15:27:13;97.00;;;36.42;;
35326;SDS011;21436;52.348;20.928;2023-02-11T15:29:43;90.53;;;35.45;;
35326;SDS011;21436;52.348;20.928;2023-02-11T15:34:44;85.28;;;33.88;;
35326;SDS011;21436;52.348;20.928;2023-02-11T15:37:22;98.07;;;38.33;;
35326;SDS011;21436;52.348;20.928;2023-02-11T15:40:06;97.82;;;36.45;;
35326;SDS011;21436;52.348;20.928;2023-02-11T15:42:39;91.10;;;35.20;;
35326;SDS011;21436;52.348;20.928;2023-02-11T15:47:51;87.32;;;35.75;;
35326;SDS011;21436;52.348;20.928;2023-02-11T15:50:21;85.72;;;34.33;;
35326;SDS011;21436;52.348;20.928;2023-02-11T15:52:50;81.75;;;33.22;;
35326;SDS011;21436;52.348;20.928;2023-02-11T15:55:18;83.55;;;33.38;;
35326;SDS011;21436;52.348;20.928;2023-02-11T15:57:55;78.63;;;31.85;;
35326;SDS011;21436;52.348;20.928;2023-02-11T16:00:27;81.47;;;34.33;;
35326;SDS011;21436;52.348;20.928;2023-02-11T16:03:00;82.78;;;32.58;;
35326;SDS011;21436;52.348;20.928;2023-02-11T16:10:58;73.95;;;30.60;;
35326;SDS011;21436;52.348;20.928;2023-02-11T16:13:29;78.90;;;30.58;;
35326;SDS011;21436;52.348;20.928;2023-02-11T16:16:04;79.78;;;33.17;;
35326;SDS011;21436;52.348;20.928;2023-02-11T16:18:54;77.97;;;32.10;;
35326;SDS011;21436;52.348;20.928;2023-02-11T16:21:35;73.65;;;30.38;;
35326;SDS011;21436;52.348;20.928;2023-02-11T16:24:05;68.47;;;29.92;;
35326;SDS011;21436;52.348;20.928;2023-02-11T16:26:35;77.40;;;32.15;;
35326;SDS011;21436;52.348;20.928;2023-02-11T16:29:06;70.38;;;31.48;;
35326;SDS011;21436;52.348;20.928;2023-02-11T16:31:38;68.35;;;30.08;;
35326;SDS011;21436;52.348;20.928;2023-02-11T16:34:10;67.90;;;29.38;;
35326;SDS011;21436;52.348;20.928;2023-02-11T16:36:40;71.30;;;29.52;;
35326;SDS011;21436;52.348;20.928;2023-02-11T16:39:08;71.28;;;30.73;;
35326;SDS011;21436;52.348;20.928;2023-02-11T16:41:36;68.85;;;29.38;;
35326;SDS011;21436;52.348;20.928;2023-02-11T16:44:04;68.95;;;28.88;;
35326;SDS011;21436;52.348;20.928;2023-02-11T16:46:31;65.85;;;31.27;;
35326;SDS011;21436;52.348;20.928;2023-02-11T16:49:05;66.72;;;30.70;;
35326;SDS011;21436;52.348;20.928;2023-02-11T16:51:38;69.32;;;27.48;;
35326;SDS011;21436;52.348;20.928;2023-02-11T16:54:11;66.15;;;28.75;;
35326;SDS011;21436;52.348;20.928;2023-02-11T16:56:41;62.13;;;29.58;;
35326;SDS011;21436;52.348;20.928;2023-02-11T16:59:09;64.75;;;30.50;;
35326;SDS011;21436;52.348;20.928;2023-02-11T17:01:38;64.53;;;29.55;;
35326;SDS011;21436;52.348;20.928;2023-02-11T17:04:06;65.20;;;28.88;;
35326;SDS011;21436;52.348;20.928;2023-02-11T17:06:37;66.47;;;29.58;;
35326;SDS011;21436;52.348;20.928;2023-02-11T17:09:05;65.70;;;27.50;;
35326;SDS011;21436;52.348;20.928;2023-02-11T17:11:33;60.78;;;27.60;;
35326;SDS011;21436;52.348;20.928;2023-02-11T17:14:01;59.25;;;27.98;;
35326;SDS011;21436;52.348;20.928;2023-02-11T17:16:29;60.25;;;28.45;;
35326;SDS011;21436;52.348;20.928;2023-02-11T17:18:56;65.32;;;29.35;;
35326;SDS011;21436;52.348;20.928;2023-02-11T17:21:24;67.75;;;32.10;;
35326;SDS011;21436;52.348;20.928;2023-02-11T17:23:56;65.30;;;28.35;;
35326;SDS011;21436;52.348;20.928;2023-02-11T17:26:24;57.63;;;27.48;;
35326;SDS011;21436;52.348;20.928;2023-02-11T17:28:52;55.70;;;26.45;;
35326;SDS011;21436;52.348;20.928;2023-02-11T17:31:19;56.83;;;26.50;;
35326;SDS011;21436;52.348;20.928;2023-02-11T17:33:47;59.10;;;27.20;;
35326;SDS011;21436;52.348;20.928;2023-02-11T17:36:14;65.60;;;28.02;;
35326;SDS011;21436;52.348;20.928;2023-02-11T17:38:42;54.83;;;26.58;;
35326;SDS011;21436;52.348;20.928;2023-02-11T17:41:09;53.20;;;25.60;;
35326;SDS011;21436;52.348;20.928;2023-02-11T17:43:38;57.03;;;26.90;;
35326;SDS011;21436;52.348;20.928;2023-02-11T17:46:09;54.10;;;26.15;;
35326;SDS011;21436;52.348;20.928;2023-02-11T17:48:37;56.65;;;26.63;;
35326;SDS011;21436;52.348;20.928;2023-02-11T17:51:05;54.85;;;27.10;;